Tungsten, Nevada
Current Conditions -  °F | °C
As of 11:56 AM on Thursday 30 Oct 2014 (Local Time) from KWMC Reporting Station
Clear Clear  
Wind Chill: 61°   Ceiling: Unl
Heat Index: 61°   Visibility: 10mi
Dew Point: 28°   Wind: 8mph
Humidity: 29%   Direction: 60°ENE
Pressure: 30.12"   Gusts: NA
Location:  40.601°N, 117.984°W
Report Text: KWMC 301856Z AUTO 06007KT 10SM CLR 16/M02 A3012 RMK AO2 SLP187 T01611022
Loading
Personal Weather Stations






























Interactive Weather Map
Tropical Storm Tracking
New forecast layout! Learn more

10-Day Weather Forecast

Advertisements
Track Severe Weather on mobile